^^
Datos históricos de la estación: Murcia-Puente Tocinos
Diario Informe para Agosto 23, 2019 Unidades:  Ingés    Métrico   Ambas
Diario Semanal Mensual Anual
  Máxima: Mínima: Promedio:
Temperatura: 84.7 °F 68 °F 75.7 °F
Punto de rocio: 65.3 °F 55.6 °F 61 °F
Humedad: 83.6% 37.9% 62%
Velocidad viento: 11.4mph 0mph 5.3mph
Racha viento: 22mph - -
Viento- - ESE
Presión: 29.9 in 29.8 in -
Precipitación: 0 in    
 
 
Tabla de datos para Agosto 23, 2019
Hora Temperatura Punto de rocio Presión Viento Velocidad viento Racha viento Humedad Intensidad lluvia(por hora) Nubes
00:04 71.8 °F 65.3 °F 29.9 in NNE 2.9 mph 5 mph 80% 0 in
00:09 71.8 °F 65.3 °F 29.9 in NE 2.9 mph 5.2 mph 80% 0 in
00:14 71.4 °F 64.9 °F 29.9 in NE 2.9 mph 5.2 mph 80% 0 in
00:19 71.4 °F 64.9 °F 29.9 in NE 3 mph 5 mph 80% 0 in
00:24 71.4 °F 64.9 °F 29.9 in NE 3.1 mph 5 mph 80% 0 in
00:29 71.4 °F 64.8 °F 29.9 in NE 3 mph 5 mph 79.7% 0 in
00:34 71.6 °F 64.8 °F 29.9 in NNE 2.9 mph 5 mph 79.3% 0 in
00:39 71.8 °F 65.3 °F 29.9 in North 2.5 mph 5 mph 80% 0 in
00:44 71.6 °F 65.1 °F 29.9 in NE 2 mph 5 mph 80% 0 in
00:49 71.4 °F 64.9 °F 29.9 in NE 2.4 mph 5 mph 80% 0 in
00:54 71.4 °F 64.9 °F 29.9 in NE 2.9 mph 5 mph 80% 0 in
00:59 71.4 °F 64.9 °F 29.9 in NE 2.7 mph 5 mph 80% 0 in
01:04 71.2 °F 64.8 °F 29.9 in NE 2.4 mph 5 mph 80% 0 in
01:09 71.2 °F 64.8 °F 29.9 in NE 2.6 mph 5 mph 80% 0 in
01:14 71.2 °F 64.8 °F 29.9 in NE 2.9 mph 5 mph 80% 0 in
01:19 71.2 °F 64.9 °F 29.9 in NE 2.9 mph 5 mph 80.7% 0 in
01:24 71.1 °F 64.9 °F 29.9 in NE 2.9 mph 5 mph 81% 0 in
01:29 71.1 °F 64.9 °F 29.9 in NE 2.9 mph 5 mph 81% 0 in
01:34 71.1 °F 64.9 °F 29.9 in NNE 2.9 mph 5 mph 81% 0 in
01:39 70.9 °F 64.8 °F 29.9 in NNE 2.7 mph 4 mph 81% 0 in
01:44 70.9 °F 65.1 °F 29.9 in NE 2.4 mph 4 mph 81.8% 0 in
01:49 70.9 °F 64.9 °F 29.9 in NE 2.2 mph 5 mph 82% 0 in
01:54 70.5 °F 64.8 °F 29.9 in NE 2 mph 5 mph 82% 0 in
01:59 70.5 °F 64.8 °F 29.9 in NE 2.4 mph 5 mph 82% 0 in
02:04 70.3 °F 64.9 °F 29.9 in NE 2.9 mph 5 mph 82.6% 0 in
02:09 70.3 °F 64.9 °F 29.9 in NE 2.5 mph 3 mph 83% 0 in
02:14 70.3 °F 64.9 °F 29.9 in NE 1.8 mph 4.6 mph 83% 0 in
02:19 70.3 °F 64.9 °F 29.9 in NE 1.8 mph 5 mph 83% 0 in
02:24 70.2 °F 64.8 °F 29.9 in NE 1.8 mph 2 mph 83% 0 in
02:29 70.2 °F 64.8 °F 29.9 in NE 1.1 mph 2.9 mph 83% 0 in
02:34 70.3 °F 64.9 °F 29.9 in Calm   3 mph 83% 0 in
02:39 70.3 °F 64.9 °F 29.9 in Calm   2 mph 83% 0 in
02:44 70.3 °F 64.9 °F 29.9 in Calm   3.1 mph 83% 0 in
02:49 70.3 °F 64.9 °F 29.9 in NNE 0.6 mph 3.5 mph 83% 0 in
02:54 70.2 °F 64.8 °F 29.9 in NNE 1.4 mph 3.5 mph 83% 0 in
02:59 70.2 °F 64.8 °F 29.9 in North 0.8 mph 3 mph 83% 0 in
03:04 70.2 °F 64.8 °F 29.9 in Calm   3.5 mph 83% 0 in
03:09 70 °F 64.6 °F 29.9 in NO 0.7 mph 4.7 mph 83% 0 in
03:14 69.8 °F 64.4 °F 29.9 in NO 1.8 mph 5 mph 82.6% 0 in
03:19 69.6 °F 63.9 °F 29.9 in NO 2.1 mph 5 mph 82% 0 in
03:24 69.4 °F 63.9 °F 29.9 in NO 2.4 mph 5 mph 82.4% 0 in
03:29 69.3 °F 63.9 °F 29.9 in NO 2.2 mph 5 mph 83% 0 in
03:34 69.3 °F 63.9 °F 29.9 in NO 1.8 mph 2 mph 83% 0 in
03:39 69.3 °F 64 °F 29.9 in NO 1.1 mph 1.4 mph 83.6% 0 in
03:44 69.1 °F 63.5 °F 29.9 in Calm   5.2 mph 82% 0 in
03:49 68.9 °F 62.6 °F 29.9 in ESE 0.7 mph 5 mph 80.3% 0 in
03:54 68.7 °F 62.2 °F 29.9 in ESE 2 mph 3.6 mph 80% 0 in
03:59 68.7 °F 62.4 °F 29.9 in ESE 1.7 mph 4 mph 80.3% 0 in
04:04 68.9 °F 63 °F 29.9 in ESE 1.4 mph 5.2 mph 81% 0 in
04:09 69.1 °F 62.6 °F 29.9 in ESE 1.6 mph 5 mph 80.2% 0 in
04:14 69.3 °F 62.8 °F 29.9 in ESE 2 mph 5 mph 79.9% 0 in
04:19 69.3 °F 62.4 °F 29.9 in ESE 2 mph 5 mph 79% 0 in
04:24 69.3 °F 62.4 °F 29.9 in SE 2 mph 4 mph 78.7% 0 in
04:29 69.4 °F 62.2 °F 29.9 in Sur 2 mph 5.2 mph 78% 0 in
04:34 69.4 °F 62.2 °F 29.9 in SSO 2 mph 5.9 mph 78% 0 in
04:39 69.4 °F 62.2 °F 29.9 in SO 2.2 mph 6 mph 78% 0 in
04:44 69.4 °F 62.4 °F 29.9 in OSO 2.4 mph 5 mph 78% 0 in
04:49 69.4 °F 62.4 °F 29.9 in OSO 2.4 mph 5 mph 78.2% 0 in
04:54 69.3 °F 62.6 °F 29.9 in Oeste 2.4 mph 4.6 mph 79.3% 0 in
04:59 69.3 °F 62.8 °F 29.9 in Oeste 2.2 mph 5 mph 80% 0 in
05:04 69.1 °F 63 °F 29.9 in Oeste 1.8 mph 4 mph 80.7% 0 in
05:09 69.1 °F 63 °F 29.9 in SO 1.9 mph 5.2 mph 81% 0 in
05:14 69.1 °F 62.6 °F 29.9 in SSO 2 mph 5.8 mph 80.1% 0 in
05:19 69.1 °F 62.4 °F 29.9 in Sur 2.4 mph 6 mph 79.1% 0 in
05:24 69.1 °F 62.1 °F 29.9 in SSO 3.1 mph 5.8 mph 78.4% 0 in
05:29 69.1 °F 61.9 °F 29.9 in SSO 3.3 mph 6 mph 78% 0 in
05:34 69.1 °F 61.9 °F 29.9 in SSO 3.6 mph 6 mph 78% 0 in
05:39 69.1 °F 61.9 °F 29.9 in SSO 3.7 mph 6 mph 78% 0 in
05:44 69.1 °F 61.9 °F 29.9 in OSO 4 mph 5.9 mph 78% 0 in
05:49 69.1 °F 61.9 °F 29.9 in SO 3.7 mph 6.2 mph 78% 0 in
05:54 68.9 °F 61.9 °F 29.9 in SO 3.1 mph 6 mph 78% 0 in
05:59 68.7 °F 61.5 °F 29.9 in OSO 3.3 mph 6 mph 78% 0 in
06:04 68.7 °F 61.5 °F 29.9 in SO 3.6 mph 6 mph 78% 0 in
06:09 68.7 °F 61.7 °F 29.9 in OSO 3.6 mph 6 mph 78.4% 0 in
06:14 68.5 °F 61.7 °F 29.9 in SO 3.6 mph 5 mph 78.8% 0 in
06:19 68.5 °F 61.7 °F 29.9 in OSO 3.1 mph 5.2 mph 78.6% 0 in
06:24 68.5 °F 61.3 °F 29.9 in OSO 2.4 mph 5 mph 78% 0 in
06:29 68.5 °F 61.3 °F 29.9 in OSO 2.7 mph 5.2 mph 78% 0 in
06:34 68.5 °F 61.3 °F 29.9 in OSO 3.1 mph 5.2 mph 78% 0 in
06:39 68.4 °F 61.2 °F 29.9 in OSO 3 mph 5.9 mph 78% 0 in
06:44 68.4 °F 61.2 °F 29.9 in OSO 2.9 mph 6 mph 78% 0 in
06:49 68.2 °F 61.2 °F 29.9 in OSO 3.2 mph 6 mph 78% 0 in
06:54 68.2 °F 61.2 °F 29.9 in SO 3.6 mph 6 mph 78.5% 0 in
06:59 68.2 °F 61.2 °F 29.9 in SO 3.6 mph 6.9 mph 78% 0 in
07:04 68 °F 61 °F 29.9 in SSO 3.6 mph 7 mph 78% 0 in
07:09 68.2 °F 60.8 °F 29.9 in SSO 3.9 mph 7 mph 77.6% 0 in
07:14 68.2 °F 60.6 °F 29.9 in SSO 4.3 mph 7 mph 77% 0 in
07:19 68.2 °F 60.8 °F 29.9 in SSO 4.2 mph 6 mph 77% 0 in
07:24 68.4 °F 60.6 °F 29.9 in SO 4 mph 5.8 mph 76.3% 0 in
07:29 68.5 °F 60.6 °F 29.9 in SO 3.6 mph 6.2 mph 75.9% 0 in
07:34 68.5 °F 60.3 °F 29.9 in SO 2.9 mph 6.4 mph 74.9% 0 in
07:39 68.5 °F 59.9 °F 29.9 in SO 3.4 mph 7.6 mph 74% 0 in
07:44 68.4 °F 59.7 °F 29.9 in OSO 4 mph 8.1 mph 74% 0 in
07:49 68.4 °F 59.7 °F 29.9 in OSO 4.1 mph 7.4 mph 74% 0 in
07:54 68.4 °F 59.7 °F 29.9 in OSO 4.3 mph 8.5 mph 74% 0 in
07:59 68.4 °F 59.7 °F 29.9 in SO 4.5 mph 9 mph 74% 0 in
08:04 68.4 °F 59.7 °F 29.9 in SO 4.7 mph 7 mph 74% 0 in
08:09 68.5 °F 59.9 °F 29.9 in OSO 4.5 mph 7.4 mph 74% 0 in
08:14 68.7 °F 60.1 °F 29.9 in SO 4 mph 7 mph 74% 0 in
08:19 68.7 °F 59.9 °F 29.9 in OSO 4 mph 7 mph 73.3% 0 in
08:24 69.1 °F 60.1 °F 29.9 in OSO 4 mph 6 mph 73% 0 in
08:29 69.3 °F 59.9 °F 29.9 in OSO 3.7 mph 6 mph 72.1% 0 in
08:34 69.4 °F 59.7 °F 29.9 in Oeste 3.1 mph 5 mph 71.1% 0 in
08:39 69.6 °F 59.7 °F 29.9 in OSO 3 mph 6.2 mph 70.6% 0 in
08:44 70.2 °F 59 °F 29.9 in OSO 2.9 mph 7.4 mph 67.9% 0 in
08:49 70.2 °F 59 °F 29.9 in OSO 3.4 mph 7 mph 67.8% 0 in
08:54 70.3 °F 59 °F 29.9 in OSO 4.3 mph 6 mph 67.3% 0 in
08:59 70.9 °F 59.4 °F 29.9 in OSO 3.7 mph 6 mph 67.4% 0 in
09:04 71.2 °F 59.4 °F 29.9 in Oeste 2.9 mph 5 mph 66.5% 0 in
09:09 71.4 °F 59.5 °F 29.9 in Oeste 2.7 mph 5 mph 66% 0 in
09:14 71.8 °F 59.7 °F 29.9 in OSO 2.4 mph 5 mph 65.7% 0 in
09:19 72.1 °F 59.5 °F 29.9 in SSO 2.4 mph 5 mph 64.4% 0 in
09:24 72.7 °F 59.9 °F 29.9 in SSO 2.4 mph 5 mph 64% 0 in
09:29 73.6 °F 59.9 °F 29.9 in OSO 1.5 mph 4.7 mph 62.5% 0 in
09:34 74.1 °F 59.9 °F 29.9 in Calm   5 mph 60.9% 0 in
09:39 74.7 °F 59.4 °F 29.9 in NO 0.9 mph 5 mph 59.1% 0 in
09:44 75 °F 59.5 °F 29.9 in NO 2.4 mph 5 mph 58.7% 0 in
09:49 75.6 °F 58.6 °F 29.9 in ONO 2.2 mph 5.9 mph 55.9% 0 in
09:54 75.4 °F 58.1 °F 29.9 in ONO 1.8 mph 6 mph 55% 0 in
09:59 75.4 °F 58.5 °F 29.9 in NNE 2.4 mph 6.9 mph 55.9% 0 in
10:04 75.7 °F 58.6 °F 29.9 in North 3.1 mph 7 mph 55.5% 0 in
10:09 75.9 °F 58.6 °F 29.9 in ONO 3 mph 7 mph 55% 0 in
10:14 76.1 °F 58.5 °F 29.9 in NO 2.9 mph 5.4 mph 54.5% 0 in
10:19 76.5 °F 59 °F 29.9 in NE 2.9 mph 7.4 mph 55% 0 in
10:24 76.6 °F 59 °F 29.9 in NE 2.9 mph 8.1 mph 54.5% 0 in
10:29 76.6 °F 58.6 °F 29.9 in NE 3.4 mph 8 mph 54.1% 0 in
10:34 76.5 °F 58.8 °F 29.9 in ENE 4.3 mph 7 mph 54.4% 0 in
10:39 76.6 °F 59.2 °F 29.9 in NE 4 mph 7.4 mph 54.7% 0 in
10:44 77 °F 58.6 °F 29.9 in NE 3.6 mph 8.1 mph 53.3% 0 in
10:49 77.2 °F 58.6 °F 29.9 in NNE 3.7 mph 8 mph 52.7% 0 in
10:54 77.4 °F 58.1 °F 29.9 in NE 4 mph 7 mph 51.7% 0 in
10:59 77.5 °F 58.5 °F 29.9 in NE 3.9 mph 9.2 mph 51.7% 0 in
11:04 77.7 °F 57 °F 29.9 in ENE 3.6 mph 9.2 mph 48.9% 0 in
11:09 77.9 °F 57.9 °F 29.9 in Este 4.3 mph 9.7 mph 50.4% 0 in
11:14 77.9 °F 58.6 °F 29.9 in Este 5.4 mph 10 mph 51.6% 0 in
11:19 78.3 °F 59.5 °F 29.9 in Este 5 mph 9.7 mph 52.7% 0 in
11:24 78.6 °F 59.4 °F 29.9 in NE 4.3 mph 11.8 mph 51.9% 0 in
11:29 78.4 °F 59.5 °F 29.9 in ENE 5.1 mph 12 mph 52.1% 0 in
11:34 78.4 °F 59.9 °F 29.9 in ESE 6.4 mph 9 mph 52.9% 0 in
11:39 78.8 °F 59.7 °F 29.9 in NE 6 mph 12.7 mph 52.1% 0 in
11:44 79.2 °F 60.1 °F 29.9 in NE 5.4 mph 13 mph 52.1% 0 in
11:49 79.3 °F 60.1 °F 29.9 in NE 6.2 mph 13 mph 51.7% 0 in
11:54 79.5 °F 60.6 °F 29.9 in ENE 7.4 mph 13 mph 52.5% 0 in
11:59 80.1 °F 61.5 °F 29.9 in NE 6.8 mph 10.4 mph 53.1% 0 in
12:04 80.2 °F 61.7 °F 29.9 in NE 5.9 mph 11.5 mph 53% 0 in
12:09 80.2 °F 62.2 °F 29.9 in ENE 6.1 mph 13 mph 54.2% 0 in
12:14 80.6 °F 62.4 °F 29.9 in Este 6.4 mph 13 mph 54.2% 0 in
12:19 81 °F 62.4 °F 29.9 in Este 6.2 mph 16.3 mph 53.7% 0 in
12:24 80.6 °F 62.1 °F 29.9 in ENE 5.9 mph 16.1 mph 53.2% 0 in
12:29 80.2 °F 62.1 °F 29.9 in ENE 6.7 mph 16 mph 54% 0 in
12:34 80.6 °F 62.2 °F 29.9 in Este 8.1 mph 14 mph 53.8% 0 in
12:39 81 °F 62.1 °F 29.9 in NE 8.3 mph 17.3 mph 53% 0 in
12:44 81 °F 62.4 °F 29.9 in ENE 8.7 mph 17 mph 53.3% 0 in
12:49 81.1 °F 62.6 °F 29.9 in Este 8.2 mph 15 mph 53.3% 0 in
12:54 81.1 °F 62.4 °F 29.9 in NE 7.4 mph 16.1 mph 53% 0 in
12:59 80.8 °F 62.2 °F 29.9 in ENE 7.9 mph 16 mph 53.3% 0 in
13:04 81.1 °F 61.5 °F 29.9 in ENE 8.7 mph 17 mph 51.5% 0 in
13:09 81.1 °F 60.8 °F 29.9 in NE 8.4 mph 19.7 mph 50% 0 in
13:14 81 °F 60.3 °F 29.9 in NE 8.1 mph 20.1 mph 49.6% 0 in
13:19 81.1 °F 60.6 °F 29.9 in NE 8.4 mph 20 mph 49.7% 0 in
13:24 81.9 °F 60.8 °F 29.9 in ENE 10 mph 18.4 mph 48.9% 0 in
13:29 81.9 °F 60.8 °F 29.9 in ENE 9.9 mph 18 mph 49% 0 in
13:34 82 °F 61.3 °F 29.9 in NE 9.7 mph 19.7 mph 49.6% 0 in
13:39 81.7 °F 61.2 °F 29.9 in NE 10.3 mph 20 mph 49.8% 0 in
13:44 81.9 °F 60.8 °F 29.9 in ENE 11.4 mph 19 mph 49.2% 0 in
13:49 82 °F 61.2 °F 29.9 in NE 11.1 mph 18 mph 49.3% 0 in
13:54 82 °F 60.4 °F 29.9 in ENE 10.7 mph 18.5 mph 47.9% 0 in
13:59 82.4 °F 60.4 °F 29.9 in NE 10.4 mph 19 mph 47.5% 0 in
14:04 82.6 °F 60.8 °F 29.9 in NE 10 mph 18.4 mph 47.9% 0 in
14:09 82.2 °F 60.1 °F 29.9 in ENE 9.9 mph 18.1 mph 47.1% 0 in
14:14 82 °F 59.9 °F 29.9 in NE 9.7 mph 20.7 mph 47.2% 0 in
14:19 82 °F 60.1 °F 29.9 in ENE 9.7 mph 21 mph 47.3% 0 in
14:24 82.4 °F 59.9 °F 29.9 in ENE 9.7 mph 17.3 mph 46.7% 0 in
14:29 82.6 °F 60.1 °F 29.9 in NE 9.3 mph 17 mph 46.6% 0 in
14:34 82.8 °F 59.7 °F 29.9 in NE 8.7 mph 17.3 mph 45.8% 0 in
14:39 83.1 °F 59.5 °F 29.9 in NE 8.6 mph 17 mph 45.1% 0 in
14:44 82.9 °F 59.9 °F 29.9 in NE 8.5 mph 17.3 mph 45.9% 0 in
14:49 82.8 °F 59.5 °F 29.9 in NE 9.1 mph 20.7 mph 45.3% 0 in
14:54 82.6 °F 60.1 °F 29.9 in NE 10 mph 21 mph 46.8% 0 in
14:59 82.9 °F 59.7 °F 29.9 in NE 9.9 mph 17.3 mph 45.5% 0 in
15:04 83.1 °F 59.7 °F 29.9 in ENE 9.7 mph 17 mph 45.1% 0 in
15:09 83.8 °F 59.4 °F 29.9 in ENE 8.8 mph 16 mph 43.5% 0 in
15:14 83.8 °F 59.4 °F 29.9 in ENE 7.4 mph 15.9 mph 43.8% 0 in
15:19 83.8 °F 59.4 °F 29.9 in ENE 7.4 mph 17.3 mph 43.6% 0 in
15:24 83.7 °F 59.4 °F 29.9 in NE 7.4 mph 17 mph 43.8% 0 in
15:29 83.7 °F 59.4 °F 29.9 in ENE 8.1 mph 17.3 mph 43.9% 0 in
15:34 83.7 °F 59.2 °F 29.9 in NE 9.2 mph 17 mph 43.5% 0 in
15:39 83.8 °F 58.6 °F 29.9 in NE 8.9 mph 16.3 mph 42.3% 0 in
15:44 84 °F 58.1 °F 29.9 in NE 8.5 mph 17.3 mph 41.4% 0 in
15:49 84 °F 58.3 °F 29.9 in NE 8.9 mph 17 mph 41.8% 0 in
15:54 84 °F 57.9 °F 29.9 in NE 9.7 mph 16.3 mph 41.3% 0 in
15:59 83.8 °F 58.5 °F 29.9 in NE 9.8 mph 19 mph 42.2% 0 in
16:04 84 °F 59 °F 29.9 in ENE 10 mph 19 mph 42.9% 0 in
16:09 84.4 °F 58.5 °F 29.9 in NE 9.7 mph 17.3 mph 41.7% 0 in
16:14 84.7 °F 58.5 °F 29.9 in ENE 9.2 mph 17 mph 41% 0 in
16:19 84.6 °F 58.8 °F 29.9 in NE 8.8 mph 17.3 mph 41.9% 0 in
16:24 84.7 °F 59 °F 29.9 in ENE 8.1 mph 17 mph 42% 0 in
16:29 84.6 °F 58.8 °F 29.9 in ENE 8.1 mph 16.3 mph 42% 0 in
16:34 84.2 °F 58.5 °F 29.9 in NE 8.1 mph 18.4 mph 41.9% 0 in
16:39 83.8 °F 58.8 °F 29.9 in NE 9.3 mph 18 mph 42.7% 0 in
16:44 83.8 °F 57.6 °F 29.9 in ENE 11.4 mph 21.9 mph 41% 0 in
16:49 84 °F 57.6 °F 29.9 in ENE 10.6 mph 22 mph 40.5% 0 in
16:54 84 °F 56.8 °F 29.9 in ENE 9.2 mph 21 mph 39.4% 0 in
16:59 84 °F 56.7 °F 29.9 in ENE 9.8 mph 21 mph 39.3% 0 in
17:04 83.8 °F 56.5 °F 29.9 in ENE 10.7 mph 19 mph 39.4% 0 in
17:09 84 °F 56.7 °F 29.9 in ENE 9.9 mph 17.8 mph 39.2% 0 in
17:14 84 °F 56.8 °F 29.9 in NE 8.7 mph 18.4 mph 39.7% 0 in
17:19 84.2 °F 55.8 °F 29.9 in NE 9.1 mph 21.9 mph 37.9% 0 in
17:24 83.8 °F 55.6 °F 29.8 in NE 9.7 mph 22 mph 38.1% 0 in
17:29 83.8 °F 56.3 °F 29.8 in NE 9.5 mph 17 mph 39.2% 0 in
17:34 83.8 °F 56.3 °F 29.8 in NE 9.2 mph 17.5 mph 39% 0 in
17:39 84 °F 56.1 °F 29.8 in Este 9 mph 19.6 mph 38.8% 0 in
17:44 84.2 °F 56.1 °F 29.8 in NE 8.7 mph 20 mph 38.5% 0 in
17:49 84 °F 55.9 °F 29.8 in ENE 8.6 mph 15 mph 38.2% 0 in
17:54 84.4 °F 56.1 °F 29.8 in NE 8.5 mph 18.4 mph 38.4% 0 in
17:59 83.8 °F 56.7 °F 29.8 in ENE 8.5 mph 18 mph 39.6% 0 in
18:04 83.8 °F 56.8 °F 29.8 in ENE 8.5 mph 16.1 mph 39.8% 0 in
18:09 83.7 °F 57.2 °F 29.8 in NE 8.6 mph 16 mph 40.5% 0 in
18:14 83.7 °F 57.2 °F 29.8 in ENE 8.7 mph 15 mph 40.5% 0 in
18:19 83.7 °F 57.2 °F 29.8 in Este 8.3 mph 15 mph 40.6% 0 in
18:24 83.7 °F 57.6 °F 29.8 in Este 7.6 mph 18.5 mph 41% 0 in
18:29 83.5 °F 57.4 °F 29.8 in ENE 8 mph 19 mph 41% 0 in
18:34 83.5 °F 57.2 °F 29.8 in ENE 8.5 mph 19 mph 41% 0 in
18:39 83.1 °F 57.2 °F 29.8 in ENE 8.3 mph 19 mph 41.2% 0 in
18:44 82.9 °F 56.8 °F 29.8 in ENE 8.1 mph 18.5 mph 41.2% 0 in
18:49 82.8 °F 57 °F 29.8 in ENE 8.3 mph 19 mph 41.6% 0 in
18:54 82.6 °F 56.8 °F 29.8 in ENE 8.7 mph 17 mph 41.5% 0 in
18:59 82.2 °F 56.3 °F 29.8 in ENE 8.6 mph 16.1 mph 41.1% 0 in
19:04 81.9 °F 56.8 °F 29.8 in NE 8.5 mph 18.4 mph 42.3% 0 in
19:09 81.9 °F 57.2 °F 29.8 in NE 9.1 mph 18 mph 43% 0 in
19:14 81.9 °F 57.4 °F 29.8 in ENE 10 mph 17.3 mph 43.6% 0 in
19:19 81.3 °F 57.4 °F 29.8 in NE 9.7 mph 17.3 mph 44% 0 in
19:24 81.3 °F 57.7 °F 29.8 in ENE 9.2 mph 17 mph 44.9% 0 in
19:29 81.1 °F 57.7 °F 29.8 in Este 8.8 mph 15 mph 44.8% 0 in
19:34 81 °F 57.7 °F 29.9 in ENE 8.1 mph 17.3 mph 45.1% 0 in
19:39 80.8 °F 58.1 °F 29.9 in ENE 8.3 mph 17.5 mph 46.2% 0 in
19:44 80.2 °F 58.6 °F 29.9 in ENE 8.5 mph 17 mph 47.8% 0 in
19:49 80.1 °F 59.2 °F 29.9 in NE 8.6 mph 15.2 mph 49% 0 in
19:54 79.9 °F 59.4 °F 29.9 in ENE 8.7 mph 15 mph 49.4% 0 in
19:59 79.5 °F 59.4 °F 29.9 in NE 8.7 mph 15 mph 50% 0 in
20:04 79.3 °F 59 °F 29.9 in ENE 8.7 mph 15.2 mph 50% 0 in
20:09 79 °F 58.8 °F 29.9 in NE 8.4 mph 17.3 mph 50% 0 in
20:14 78.8 °F 58.6 °F 29.9 in NE 8.1 mph 17 mph 50% 0 in
20:19 78.4 °F 58.6 °F 29.9 in ENE 8.3 mph 16.1 mph 50.7% 0 in
20:24 78.3 °F 58.6 °F 29.9 in NE 8.5 mph 16 mph 51% 0 in
20:29 78.1 °F 58.8 °F 29.9 in ENE 8.3 mph 14 mph 51.7% 0 in
20:34 78.1 °F 58.5 °F 29.9 in NE 8.1 mph 16.1 mph 51% 0 in
20:39 77.7 °F 58.6 °F 29.9 in NE 8.3 mph 16 mph 52% 0 in
20:44 77.7 °F 59.2 °F 29.9 in NE 8.5 mph 14 mph 53.2% 0 in
20:49 77.5 °F 59.9 °F 29.9 in NE 7.6 mph 13 mph 54.6% 0 in
20:54 77.5 °F 60.3 °F 29.9 in ENE 6.4 mph 13 mph 55.3% 0 in
20:59 77.4 °F 60.6 °F 29.9 in NE 6.2 mph 13.8 mph 56.5% 0 in
21:04 77 °F 61.2 °F 29.9 in ENE 5.9 mph 14 mph 58.4% 0 in
21:09 76.6 °F 61.7 °F 29.9 in ENE 6 mph 14 mph 59.9% 0 in
21:14 76.5 °F 62.2 °F 29.9 in NE 6.2 mph 10 mph 61.7% 0 in
21:19 76.1 °F 62.6 °F 29.9 in ENE 5.8 mph 10 mph 63% 0 in
21:24 75.9 °F 62.8 °F 29.9 in NE 5.2 mph 9.7 mph 63.9% 0 in
21:29 75.7 °F 63.1 °F 29.9 in ENE 5.3 mph 10.7 mph 65.1% 0 in
21:34 75.6 °F 63.3 °F 29.9 in NE 5.4 mph 11 mph 66% 0 in
21:39 75.4 °F 63.3 °F 29.9 in NE 5.6 mph 10 mph 66.4% 0 in
21:44 75.4 °F 63.7 °F 29.9 in NE 5.9 mph 9.7 mph 67% 0 in
21:49 75 °F 63.7 °F 29.9 in NE 5.5 mph 10 mph 67.7% 0 in
21:54 74.8 °F 63.9 °F 29.9 in NE 4.7 mph 10 mph 68.6% 0 in
21:59 74.7 °F 63.9 °F 29.9 in NE 4.9 mph 8 mph 69% 0 in
22:04 74.7 °F 64 °F 29.9 in ENE 5.2 mph 7 mph 69.5% 0 in
22:09 74.5 °F 64 °F 29.9 in ENE 4.8 mph 7.4 mph 70% 0 in
22:14 74.5 °F 64 °F 29.9 in NE 4.3 mph 7 mph 70% 0 in
22:19 74.3 °F 63.9 °F 29.9 in NE 4.2 mph 7 mph 70% 0 in
22:24 74.3 °F 63.7 °F 29.9 in NE 4 mph 6 mph 69.7% 0 in
22:29 74.1 °F 63.3 °F 29.9 in NE 4 mph 6.9 mph 69% 0 in
22:34 74.1 °F 63.3 °F 29.9 in NE 4 mph 7 mph 69% 0 in
22:39 74.1 °F 63.3 °F 29.9 in NE 4.2 mph 7 mph 69% 0 in
22:44 74.1 °F 63.3 °F 29.9 in NE 4.3 mph 7 mph 69% 0 in
22:49 73.9 °F 63.1 °F 29.9 in NE 4.3 mph 6.9 mph 69% 0 in
22:54 73.9 °F 63.1 °F 29.9 in NE 4.3 mph 8.1 mph 69% 0 in
22:59 73.9 °F 63.1 °F 29.9 in NE 4.7 mph 8.5 mph 69% 0 in
23:04 73.9 °F 63.1 °F 29.9 in NE 5.2 mph 9 mph 69% 0 in
23:09 73.9 °F 62.8 °F 29.9 in NE 5.2 mph 8 mph 68% 0 in
23:14 73.9 °F 62.8 °F 29.9 in NE 5.2 mph 7 mph 68% 0 in
23:19 73.9 °F 62.8 °F 29.9 in NE 4.5 mph 6.9 mph 68% 0 in
23:24 73.9 °F 62.6 °F 29.9 in NE 3.6 mph 7 mph 68% 0 in
23:29 73.9 °F 62.6 °F 29.9 in NE 3.6 mph 6.9 mph 68% 0 in
23:34 73.8 °F 62.4 °F 29.9 in NE 3.6 mph 7 mph 68% 0 in
23:39 73.8 °F 62.4 °F 29.9 in ENE 3.2 mph 5 mph 68% 0 in
23:44 73.8 °F 62.4 °F 29.9 in North 2.4 mph 5 mph 68% 0 in
23:49 73.8 °F 62.4 °F 29.9 in NO 2.2 mph 5 mph 68% 0 in
23:54 73.8 °F 62.4 °F 29.9 in NO 1.8 mph 4 mph 68% 0 in
23:59 73.8 °F 62.4 °F 29.9 in NO 0.9 mph   68% 0 in
Murcia-Puente Tocinos, España
Compliments of Weather Underground - 3 mb

La estación de MeteoMurcia.com, publica sus datos en los siguientes proyectos:

Weather Underground PWS IMURCIAP2 Meteoclimatic www.awekas.at

W3Counter
Web Analytics